createdAt,value
2022-07-26T04:16:05.948Z,18.45
2022-07-26T04:18:32.535Z,18.66
2022-07-26T04:20:59.143Z,18.69
2022-07-26T04:23:25.758Z,18.36
2022-07-26T04:25:52.321Z,18.33
2022-07-26T04:28:18.861Z,18.08
2022-07-26T04:30:45.646Z,18.45
2022-07-26T04:33:12.200Z,18.58
2022-07-26T04:35:38.800Z,18.52
2022-07-26T04:38:20.482Z,17.73
2022-07-26T04:40:47.013Z,17.59
2022-07-26T04:43:15.987Z,17.97
2022-07-26T04:45:46.441Z,17.93
2022-07-26T04:48:13.752Z,18.13
2022-07-26T04:50:40.870Z,17.60
2022-07-26T04:53:07.481Z,17.40
2022-07-26T04:55:36.469Z,17.55
2022-07-26T04:58:03.888Z,17.95
2022-07-26T05:00:30.431Z,17.80
2022-07-26T05:02:59.191Z,18.08
2022-07-26T05:05:27.899Z,18.35
2022-07-26T05:07:58.359Z,18.51
2022-07-26T05:10:31.488Z,18.35
2022-07-26T05:12:58.291Z,18.65
2022-07-26T05:15:25.236Z,18.23
2022-07-26T05:18:10.367Z,18.07
2022-07-26T05:20:40.680Z,18.03
2022-07-26T05:23:07.435Z,18.06
2022-07-26T05:25:34.188Z,17.98
2022-07-26T05:28:00.908Z,18.21
2022-07-26T05:30:27.508Z,18.24
2022-07-26T05:32:58.011Z,18.34
2022-07-26T05:35:29.575Z,18.04
2022-07-26T05:38:01.189Z,18.09
2022-07-26T05:40:28.905Z,17.90
2022-07-26T05:42:58.915Z,18.34
2022-07-26T05:45:25.539Z,18.39
2022-07-26T05:47:53.293Z,17.68
2022-07-26T05:50:20.283Z,17.74
2022-07-26T05:52:46.989Z,18.31
2022-07-26T05:55:13.744Z,18.28
2022-07-26T05:57:41.936Z,18.26
2022-07-26T06:00:11.981Z,17.82
2022-07-26T06:02:40.274Z,17.92
2022-07-26T06:05:07.817Z,18.01
2022-07-26T06:07:38.834Z,18.08
2022-07-26T06:10:06.081Z,17.65
2022-07-26T06:12:32.779Z,18.11
2022-07-26T06:14:59.537Z,17.52
2022-07-26T06:17:30.448Z,17.78
2022-07-26T06:19:58.899Z,17.96
2022-07-26T06:34:33.165Z,18.37
2022-07-26T06:36:59.981Z,17.90
2022-07-26T06:39:56.771Z,18.26
2022-07-26T06:42:23.806Z,18.08
2022-07-26T06:44:50.363Z,18.17
2022-07-26T06:47:17.100Z,18.41
2022-07-26T06:49:44.797Z,18.53
2022-07-26T06:52:14.195Z,18.86
2022-07-26T06:54:40.706Z,18.31
2022-07-26T06:57:07.308Z,18.56
2022-07-26T06:59:34.052Z,18.79
2022-07-26T07:02:03.293Z,19.09
2022-07-26T07:04:31.040Z,18.97
2022-07-26T07:07:05.239Z,18.80
2022-07-26T07:09:33.554Z,19.12
2022-07-26T07:12:09.436Z,19.50
2022-07-26T07:14:39.555Z,18.93
2022-07-26T07:17:12.230Z,19.01
2022-07-26T07:19:40.545Z,19.01
2022-07-26T07:22:11.711Z,19.36
2022-07-26T07:24:39.442Z,19.27
2022-07-26T07:27:07.202Z,19.21
2022-07-26T07:29:34.010Z,19.13
2022-07-26T07:32:19.915Z,19.54
2022-07-26T07:34:49.714Z,19.42
2022-07-26T07:37:20.508Z,19.56
2022-07-26T07:39:50.255Z,19.65
2022-07-26T07:42:18.903Z,19.54
2022-07-26T07:44:45.912Z,19.81
2022-07-26T07:47:12.486Z,19.85
2022-07-26T07:49:39.053Z,19.14
2022-07-26T07:52:11.668Z,19.80
2022-07-26T07:55:28.582Z,20.29
2022-07-26T07:57:52.936Z,20.22
2022-07-26T08:00:29.482Z,19.87
2022-07-26T08:02:56.189Z,20.37
2022-07-26T08:05:22.764Z,20.55
2022-07-26T08:07:49.699Z,20.55
2022-07-26T08:10:19.791Z,20.78
2022-07-26T08:12:46.495Z,20.86
2022-07-26T08:15:18.026Z,21.08
2022-07-26T08:17:51.064Z,20.94
2022-07-26T08:20:23.496Z,21.22
2022-07-26T08:22:50.856Z,20.97
2022-07-26T08:25:17.663Z,20.38
2022-07-26T08:27:55.052Z,20.62
2022-07-26T08:30:32.088Z,20.59
2022-07-26T08:32:59.330Z,20.67
2022-07-26T08:35:25.953Z,20.27
2022-07-26T08:37:52.710Z,20.38
2022-07-26T08:40:19.496Z,20.03
2022-07-26T08:42:52.940Z,20.80
2022-07-26T08:45:27.093Z,21.08
2022-07-26T08:48:16.834Z,20.94
2022-07-26T08:50:41.185Z,21.47
2022-07-26T08:53:09.482Z,21.77
2022-07-26T08:56:04.386Z,21.68
2022-07-26T08:58:25.545Z,22.11
2022-07-26T09:01:14.447Z,22.38
2022-07-26T09:03:42.955Z,22.57
2022-07-26T09:06:22.519Z,22.19
2022-07-26T09:08:53.393Z,22.47
2022-07-26T09:11:32.229Z,22.43
2022-07-26T09:14:01.905Z,22.68
2022-07-26T09:16:30.586Z,22.06
2022-07-26T09:19:27.960Z,21.89
2022-07-26T09:21:57.718Z,21.72
2022-07-26T09:24:36.532Z,22.22
2022-07-26T09:27:06.346Z,21.33
2022-07-26T09:29:50.149Z,21.67
2022-07-26T09:32:22.105Z,21.61
2022-07-26T09:34:55.702Z,21.68
2022-07-26T09:37:46.935Z,22.17
2022-07-26T09:40:19.612Z,22.83
2022-07-26T09:43:04.851Z,23.39
2022-07-26T09:45:35.361Z,22.83
2022-07-26T09:48:03.756Z,22.69
2022-07-26T09:51:00.665Z,22.75
2022-07-26T09:53:39.987Z,22.32
2022-07-26T09:56:09.008Z,22.66
2022-07-26T09:58:36.759Z,22.43
2022-07-26T10:01:05.757Z,22.99
2022-07-26T10:03:34.202Z,22.90
2022-07-26T10:06:51.691Z,22.42
2022-07-26T10:09:19.210Z,22.91
2022-07-26T10:11:52.978Z,23.06
2022-07-26T10:14:40.897Z,23.37
2022-07-26T10:17:41.730Z,23.08
2022-07-26T10:20:29.552Z,22.56
2022-07-26T10:22:56.097Z,23.17
2022-07-26T10:25:23.596Z,23.54
2022-07-26T10:27:52.492Z,24.13
2022-07-26T10:30:22.641Z,24.44
2022-07-26T10:32:55.002Z,24.25
2022-07-26T10:35:38.867Z,23.08
2022-07-26T10:38:38.765Z,23.28
2022-07-26T10:41:09.322Z,22.41
2022-07-26T10:44:12.191Z,23.11
2022-07-26T10:46:56.544Z,23.65
2022-07-26T10:49:30.394Z,24.58
2022-07-26T10:52:25.147Z,23.80
2022-07-26T10:55:00.612Z,23.66
2022-07-26T10:57:29.865Z,23.21
2022-07-26T10:59:57.892Z,23.81
2022-07-26T11:02:29.162Z,23.99
2022-07-26T11:05:15.641Z,23.78
2022-07-26T11:08:10.806Z,23.39
2022-07-26T11:10:44.512Z,23.85
2022-07-26T11:13:13.161Z,24.32
2022-07-26T11:15:42.940Z,24.49
2022-07-26T11:18:32.762Z,25.21
2022-07-26T11:21:17.663Z,25.57
2022-07-26T11:23:46.200Z,24.97
2022-07-26T11:26:17.354Z,24.38
2022-07-26T11:28:56.606Z,23.70
2022-07-26T11:31:51.577Z,23.06
2022-07-26T11:34:59.926Z,22.81
2022-07-26T11:37:33.840Z,23.08
2022-07-26T11:40:42.082Z,22.43
2022-07-26T11:43:11.711Z,23.44
2022-07-26T11:45:40.460Z,23.58
2022-07-26T11:48:20.344Z,23.88
2022-07-26T11:50:48.004Z,23.82
2022-07-26T11:53:22.360Z,23.32
2022-07-26T11:55:48.918Z,23.45
2022-07-26T11:58:15.532Z,23.66
2022-07-26T12:00:42.683Z,23.03
2022-07-26T12:03:09.529Z,23.65
2022-07-26T12:05:36.664Z,23.58
2022-07-26T12:08:12.505Z,23.79
2022-07-26T12:10:39.332Z,24.25
2022-07-26T12:13:14.533Z,24.43
2022-07-26T12:15:49.783Z,24.36
2022-07-26T12:18:28.514Z,24.88
2022-07-26T12:21:03.615Z,24.48
2022-07-26T12:23:46.171Z,25.23
2022-07-26T12:26:28.466Z,25.59
2022-07-26T12:28:56.198Z,25.97
2022-07-26T12:31:25.156Z,25.03
2022-07-26T12:33:56.427Z,24.81
2022-07-26T12:36:27.906Z,23.62
2022-07-26T12:38:55.993Z,23.38
2022-07-26T12:41:36.268Z,24.37
2022-07-26T12:44:04.846Z,24.04
2022-07-26T12:46:33.441Z,24.07
2022-07-26T12:49:00.888Z,23.74
2022-07-26T12:51:27.751Z,23.67
2022-07-26T12:53:54.520Z,24.62
2022-07-26T12:56:22.126Z,24.02
2022-07-26T12:59:17.624Z,24.19
2022-07-26T13:01:44.563Z,23.53
2022-07-26T13:04:11.586Z,24.05
2022-07-26T13:06:39.499Z,24.12
2022-07-26T13:09:08.138Z,24.33
2022-07-26T13:11:34.624Z,24.03
2022-07-26T13:14:01.248Z,24.55
2022-07-26T13:16:36.195Z,23.84
2022-07-26T13:19:03.240Z,24.00
2022-07-26T13:21:33.587Z,24.43
2022-07-26T13:24:01.942Z,24.83
2022-07-26T13:26:28.779Z,24.76
2022-07-26T13:28:55.946Z,24.54
2022-07-26T13:31:25.671Z,25.01
2022-07-26T13:33:52.377Z,24.43
2022-07-26T13:36:18.900Z,24.82
2022-07-26T13:38:45.434Z,24.22
2022-07-26T13:41:11.992Z,25.25
2022-07-26T13:43:38.545Z,25.42
2022-07-26T13:46:05.247Z,25.31
2022-07-26T13:48:34.222Z,25.66
2022-07-26T13:51:00.767Z,25.29
2022-07-26T13:53:27.333Z,25.68
2022-07-26T13:55:53.946Z,25.39
2022-07-26T13:58:21.555Z,25.27
2022-07-26T14:00:48.941Z,25.96
2022-07-26T14:03:16.420Z,24.85
2022-07-26T14:05:43.065Z,24.70
2022-07-26T14:08:09.666Z,24.27
2022-07-26T14:10:39.633Z,24.14
2022-07-26T14:13:08.129Z,24.44
2022-07-26T14:15:34.952Z,24.27
2022-07-26T14:18:02.283Z,24.39
2022-07-26T14:20:36.313Z,24.74
2022-07-26T14:23:02.900Z,24.89
2022-07-26T14:25:29.354Z,24.60
2022-07-26T14:28:01.722Z,24.96
2022-07-26T14:30:33.670Z,24.38
2022-07-26T14:33:06.020Z,24.89
2022-07-26T14:35:35.246Z,25.06
2022-07-26T14:38:01.859Z,25.64
2022-07-26T14:40:28.374Z,25.64
2022-07-26T14:42:56.052Z,25.62
2022-07-26T14:45:22.629Z,24.93
2022-07-26T14:47:49.257Z,24.44
2022-07-26T14:50:16.278Z,24.74
2022-07-26T14:53:25.462Z,25.16
2022-07-26T14:55:53.074Z,25.31
2022-07-26T14:58:19.864Z,25.20
2022-07-26T15:01:12.590Z,25.34
2022-07-26T15:03:44.259Z,25.48
2022-07-26T15:06:10.782Z,25.59
2022-07-26T15:08:37.336Z,26.17
2022-07-26T15:11:05.474Z,25.90
2022-07-26T15:13:37.019Z,25.32
2022-07-26T15:16:32.626Z,25.18
2022-07-26T15:19:01.643Z,24.88
2022-07-26T15:21:31.784Z,25.24
2022-07-26T15:23:58.353Z,25.58
2022-07-26T15:26:32.968Z,25.85
2022-07-26T15:29:58.215Z,25.93
2022-07-26T15:32:29.302Z,26.07
2022-07-26T15:34:55.800Z,26.34
2022-07-26T15:37:22.372Z,25.67
2022-07-26T15:39:53.046Z,25.96
2022-07-26T15:42:20.893Z,26.14
2022-07-26T15:44:50.034Z,25.45
2022-07-26T15:47:43.522Z,25.80
2022-07-26T15:50:06.364Z,25.94
2022-07-26T15:52:36.066Z,25.88
2022-07-26T15:55:02.822Z,26.42
2022-07-26T15:57:29.351Z,26.81
2022-07-26T16:00:18.000Z,26.68
2022-07-26T16:02:44.684Z,26.21
2022-07-26T16:05:12.077Z,26.39
2022-07-26T16:07:41.456Z,26.91
2022-07-26T16:10:12.846Z,26.82
2022-07-26T16:12:41.193Z,26.92
2022-07-26T16:15:09.364Z,26.09
2022-07-26T16:17:36.717Z,26.31
2022-07-26T16:20:04.491Z,25.69
2022-07-26T16:22:31.689Z,26.18
2022-07-26T16:24:58.446Z,26.27
2022-07-26T16:28:34.010Z,25.92
2022-07-26T16:31:00.923Z,25.98
2022-07-26T16:33:27.577Z,26.24
2022-07-26T16:35:54.210Z,26.78
2022-07-26T16:38:20.763Z,26.72
2022-07-26T16:40:47.400Z,26.89
2022-07-26T16:43:14.099Z,26.19
2022-07-26T16:45:40.653Z,26.49
2022-07-26T16:48:07.239Z,26.00
2022-07-26T16:50:37.373Z,25.90
2022-07-26T16:53:05.164Z,26.54
2022-07-26T16:55:34.141Z,26.32
2022-07-26T16:58:01.115Z,26.24
2022-07-26T17:00:52.751Z,26.27
2022-07-26T17:03:23.643Z,25.90
2022-07-26T17:05:50.361Z,26.16
2022-07-26T17:08:17.051Z,26.10
2022-07-26T17:10:44.055Z,26.25
2022-07-26T17:13:10.750Z,26.20
2022-07-26T17:15:37.269Z,26.44
2022-07-26T17:18:04.521Z,26.26
2022-07-26T17:20:31.315Z,25.87
2022-07-26T17:22:57.883Z,26.28
2022-07-26T17:25:27.651Z,26.35
2022-07-26T17:27:54.157Z,25.42
2022-07-26T17:30:23.029Z,25.64
2022-07-26T17:32:49.945Z,25.20
2022-07-26T17:35:16.514Z,25.22
2022-07-26T17:37:58.467Z,24.69
2022-07-26T17:40:25.937Z,24.70
2022-07-26T17:42:54.941Z,24.81
2022-07-26T17:45:24.542Z,25.13
2022-07-26T17:47:51.195Z,24.72
2022-07-26T17:53:04.662Z,24.18
2022-07-26T17:55:37.522Z,24.42
2022-07-26T17:58:04.188Z,23.38
2022-07-26T18:00:30.962Z,24.24
2022-07-26T18:02:57.880Z,24.08
2022-07-26T18:05:31.715Z,23.69
2022-07-26T18:08:29.212Z,23.91
2022-07-26T18:10:57.140Z,24.06
2022-07-26T18:13:26.459Z,23.79
2022-07-26T18:15:53.363Z,23.68
2022-07-26T18:18:20.085Z,23.49
2022-07-26T18:21:10.677Z,22.95
2022-07-26T18:23:42.889Z,23.62
2022-07-26T18:26:24.174Z,23.63
2022-07-26T18:28:51.657Z,23.71
2022-07-26T18:31:18.640Z,23.52
2022-07-26T18:33:45.391Z,23.72
2022-07-26T18:36:12.010Z,23.35
2022-07-26T18:38:38.751Z,23.67
2022-07-26T18:41:05.911Z,23.49
2022-07-26T18:43:33.529Z,23.60
2022-07-26T18:46:05.617Z,23.50
2022-07-26T18:48:32.754Z,23.54
2022-07-26T18:51:00.410Z,23.43
2022-07-26T18:53:28.646Z,23.48
2022-07-26T18:56:01.316Z,23.60
2022-07-26T18:58:28.689Z,23.56
2022-07-26T19:00:56.778Z,23.63
2022-07-26T19:03:23.410Z,23.60
2022-07-26T19:05:58.040Z,23.30
2022-07-26T19:08:26.654Z,23.44
2022-07-26T19:10:53.263Z,23.25
2022-07-26T19:13:19.985Z,23.11
2022-07-26T19:15:46.625Z,23.13
2022-07-26T19:18:16.689Z,23.09
2022-07-26T19:20:44.084Z,23.05
2022-07-26T19:23:11.734Z,23.00
2022-07-26T19:25:39.704Z,23.11
2022-07-26T19:28:07.162Z,23.10
2022-07-26T19:30:36.891Z,22.95
2022-07-26T19:33:03.597Z,22.92
2022-07-26T19:35:34.252Z,22.99
2022-07-26T19:38:04.015Z,22.99
2022-07-26T19:40:30.739Z,22.72
2022-07-26T19:42:57.208Z,22.83
2022-07-26T19:45:23.883Z,22.69
2022-07-26T19:47:57.841Z,22.42
2022-07-26T19:50:24.628Z,22.72
2022-07-26T19:52:52.265Z,22.85
2022-07-26T19:55:20.024Z,22.93
2022-07-26T19:57:46.577Z,22.72
2022-07-26T20:00:13.493Z,22.84
2022-07-26T20:02:41.306Z,22.93
2022-07-26T20:05:09.933Z,22.43
2022-07-26T20:07:37.012Z,22.67
2022-07-26T20:10:05.456Z,22.75
2022-07-26T20:12:34.283Z,22.84
2022-07-26T20:15:03.004Z,22.81
2022-07-26T20:17:35.343Z,22.78
2022-07-26T20:20:04.607Z,22.81
2022-07-26T20:22:35.903Z,22.80
2022-07-26T20:25:02.534Z,22.70
2022-07-26T20:27:29.079Z,22.63
2022-07-26T20:30:00.756Z,22.63
2022-07-26T20:32:27.857Z,22.62
2022-07-26T20:34:54.634Z,22.51
2022-07-26T20:37:24.507Z,22.46
2022-07-26T20:39:52.141Z,21.93
2022-07-26T20:42:27.356Z,21.88
2022-07-26T20:44:54.727Z,21.91
2022-07-26T20:47:22.002Z,21.99
2022-07-26T20:49:48.914Z,21.92
2022-07-26T20:52:18.748Z,22.05
2022-07-26T20:54:53.720Z,21.87
2022-07-26T20:57:50.799Z,21.48
2022-07-26T21:00:30.637Z,21.39
2022-07-26T21:02:59.776Z,21.06
2022-07-26T21:06:00.386Z,21.35
2022-07-26T21:08:32.338Z,21.08
2022-07-26T21:10:59.065Z,21.09
2022-07-26T21:13:25.649Z,20.95
2022-07-26T21:15:55.361Z,20.94
2022-07-26T21:18:52.795Z,20.85
2022-07-26T21:21:50.756Z,20.80
2022-07-26T21:24:47.339Z,20.72
2022-07-26T21:27:19.669Z,21.07
2022-07-26T21:29:49.774Z,20.78
2022-07-26T21:32:16.546Z,20.50
2022-07-26T21:34:50.911Z,20.61
2022-07-26T21:37:18.044Z,20.61
2022-07-26T21:39:52.516Z,20.86
2022-07-26T21:42:38.286Z,20.79
2022-07-26T21:45:11.818Z,20.47
2022-07-26T21:47:46.328Z,20.72
2022-07-26T21:50:25.976Z,20.85
2022-07-26T21:53:05.830Z,20.33
2022-07-26T21:55:41.897Z,20.40
2022-07-26T21:58:20.598Z,20.27
